sensor_id;sensor_type;location;lat;lon;timestamp;temperature;humidity
780;DHT22;373;49.342;8.146;2023-11-19T00:00:17;10.20;99.90
780;DHT22;373;49.342;8.146;2023-11-19T00:02:47;10.10;99.90
780;DHT22;373;49.342;8.146;2023-11-19T00:05:30;10.00;99.90
780;DHT22;373;49.342;8.146;2023-11-19T00:07:58;9.90;99.90
780;DHT22;373;49.342;8.146;2023-11-19T00:10:28;9.80;99.90
780;DHT22;373;49.342;8.146;2023-11-19T00:12:56;9.70;99.90
780;DHT22;373;49.342;8.146;2023-11-19T00:15:26;9.50;99.90
780;DHT22;373;49.342;8.146;2023-11-19T00:17:54;9.40;99.90
780;DHT22;373;49.342;8.146;2023-11-19T00:20:22;9.60;99.90
780;DHT22;373;49.342;8.146;2023-11-19T00:22:50;9.60;99.90
780;DHT22;373;49.342;8.146;2023-11-19T00:25:18;9.70;99.90
780;DHT22;373;49.342;8.146;2023-11-19T00:27:45;9.90;99.90
780;DHT22;373;49.342;8.146;2023-11-19T00:30:14;10.20;99.90
780;DHT22;373;49.342;8.146;2023-11-19T00:32:57;10.40;99.90
780;DHT22;373;49.342;8.146;2023-11-19T00:35:26;10.40;99.90
780;DHT22;373;49.342;8.146;2023-11-19T00:37:56;10.60;99.90
780;DHT22;373;49.342;8.146;2023-11-19T00:40:23;10.80;99.90
780;DHT22;373;49.342;8.146;2023-11-19T00:42:54;11.00;99.90
780;DHT22;373;49.342;8.146;2023-11-19T00:45:21;11.20;99.90
780;DHT22;373;49.342;8.146;2023-11-19T00:47:51;11.40;99.90
780;DHT22;373;49.342;8.146;2023-11-19T00:50:20;11.60;99.90
780;DHT22;373;49.342;8.146;2023-11-19T00:52:51;11.40;99.90
780;DHT22;373;49.342;8.146;2023-11-19T00:55:23;11.40;99.90
780;DHT22;373;49.342;8.146;2023-11-19T00:57:53;11.50;99.90
780;DHT22;373;49.342;8.146;2023-11-19T01:00:33;11.60;99.90
780;DHT22;373;49.342;8.146;2023-11-19T01:03:13;11.60;99.90
780;DHT22;373;49.342;8.146;2023-11-19T01:05:54;11.50;99.90
780;DHT22;373;49.342;8.146;2023-11-19T01:08:42;11.50;99.90
780;DHT22;373;49.342;8.146;2023-11-19T01:11:19;11.50;99.90
780;DHT22;373;49.342;8.146;2023-11-19T01:13:47;11.60;99.90
780;DHT22;373;49.342;8.146;2023-11-19T01:16:20;11.50;99.90
780;DHT22;373;49.342;8.146;2023-11-19T01:18:50;11.60;99.90
780;DHT22;373;49.342;8.146;2023-11-19T01:21:18;11.60;99.90
780;DHT22;373;49.342;8.146;2023-11-19T01:23:48;11.50;99.90
780;DHT22;373;49.342;8.146;2023-11-19T01:26:17;11.60;99.90
780;DHT22;373;49.342;8.146;2023-11-19T01:28:51;11.70;99.90
780;DHT22;373;49.342;8.146;2023-11-19T01:31:24;11.50;99.90
780;DHT22;373;49.342;8.146;2023-11-19T01:33:59;11.60;99.90
780;DHT22;373;49.342;8.146;2023-11-19T01:36:33;11.50;99.90
780;DHT22;373;49.342;8.146;2023-11-19T01:39:00;11.50;99.90
780;DHT22;373;49.342;8.146;2023-11-19T01:41:27;11.60;99.90
780;DHT22;373;49.342;8.146;2023-11-19T01:43:54;11.60;99.90
780;DHT22;373;49.342;8.146;2023-11-19T01:46:22;11.70;99.90
780;DHT22;373;49.342;8.146;2023-11-19T01:48:49;11.80;99.90
780;DHT22;373;49.342;8.146;2023-11-19T01:51:24;11.90;99.90
780;DHT22;373;49.342;8.146;2023-11-19T01:53:57;11.70;99.90
780;DHT22;373;49.342;8.146;2023-11-19T01:56:26;11.60;99.90
780;DHT22;373;49.342;8.146;2023-11-19T01:58:56;11.60;99.90
780;DHT22;373;49.342;8.146;2023-11-19T02:01:23;11.00;99.90
780;DHT22;373;49.342;8.146;2023-11-19T02:03:53;10.90;99.90
780;DHT22;373;49.342;8.146;2023-11-19T02:06:24;10.60;99.90
780;DHT22;373;49.342;8.146;2023-11-19T02:08:56;10.20;99.90
780;DHT22;373;49.342;8.146;2023-11-19T02:11:26;10.10;99.90
780;DHT22;373;49.342;8.146;2023-11-19T02:13:55;10.00;99.90
780;DHT22;373;49.342;8.146;2023-11-19T02:16:25;10.00;99.90
780;DHT22;373;49.342;8.146;2023-11-19T02:18:53;10.10;99.90
780;DHT22;373;49.342;8.146;2023-11-19T02:21:22;10.10;99.90
780;DHT22;373;49.342;8.146;2023-11-19T02:23:50;10.10;99.90
780;DHT22;373;49.342;8.146;2023-11-19T02:26:28;10.00;99.90
780;DHT22;373;49.342;8.146;2023-11-19T02:29:00;10.00;99.90
780;DHT22;373;49.342;8.146;2023-11-19T02:31:31;10.20;99.90
780;DHT22;373;49.342;8.146;2023-11-19T02:34:01;10.20;99.90
780;DHT22;373;49.342;8.146;2023-11-19T02:36:30;10.20;99.90
780;DHT22;373;49.342;8.146;2023-11-19T02:38:59;10.20;99.90
780;DHT22;373;49.342;8.146;2023-11-19T02:41:29;10.00;99.90
780;DHT22;373;49.342;8.146;2023-11-19T02:43:56;10.00;99.90
780;DHT22;373;49.342;8.146;2023-11-19T02:46:26;10.00;99.90
780;DHT22;373;49.342;8.146;2023-11-19T02:48:53;10.00;99.90
780;DHT22;373;49.342;8.146;2023-11-19T02:51:21;9.90;99.90
780;DHT22;373;49.342;8.146;2023-11-19T02:53:48;10.10;99.90
780;DHT22;373;49.342;8.146;2023-11-19T02:56:15;10.30;99.90
780;DHT22;373;49.342;8.146;2023-11-19T02:58:46;10.30;99.90
780;DHT22;373;49.342;8.146;2023-11-19T03:01:22;10.30;99.90
780;DHT22;373;49.342;8.146;2023-11-19T03:03:57;10.70;99.90
780;DHT22;373;49.342;8.146;2023-11-19T03:06:24;10.80;99.90
780;DHT22;373;49.342;8.146;2023-11-19T03:08:53;10.70;99.90
780;DHT22;373;49.342;8.146;2023-11-19T03:11:20;10.50;99.90
780;DHT22;373;49.342;8.146;2023-11-19T03:13:47;10.60;99.90
780;DHT22;373;49.342;8.146;2023-11-19T03:16:14;10.50;99.90
780;DHT22;373;49.342;8.146;2023-11-19T03:18:42;10.60;99.90
780;DHT22;373;49.342;8.146;2023-11-19T03:21:13;10.60;99.90
780;DHT22;373;49.342;8.146;2023-11-19T03:23:44;10.60;99.90
780;DHT22;373;49.342;8.146;2023-11-19T03:26:11;10.40;99.90
780;DHT22;373;49.342;8.146;2023-11-19T03:28:39;10.30;99.90
780;DHT22;373;49.342;8.146;2023-11-19T03:31:06;10.30;99.90
780;DHT22;373;49.342;8.146;2023-11-19T03:33:35;10.30;99.90
780;DHT22;373;49.342;8.146;2023-11-19T03:36:03;10.50;99.90
780;DHT22;373;49.342;8.146;2023-11-19T03:38:33;10.60;99.90
780;DHT22;373;49.342;8.146;2023-11-19T03:41:01;10.60;99.90
780;DHT22;373;49.342;8.146;2023-11-19T03:43:28;10.60;99.90
780;DHT22;373;49.342;8.146;2023-11-19T03:46:01;10.50;99.90
780;DHT22;373;49.342;8.146;2023-11-19T03:48:31;11.00;99.90
780;DHT22;373;49.342;8.146;2023-11-19T03:50:58;11.40;99.90
780;DHT22;373;49.342;8.146;2023-11-19T03:53:25;11.80;99.90
780;DHT22;373;49.342;8.146;2023-11-19T03:55:53;12.10;99.90
780;DHT22;373;49.342;8.146;2023-11-19T03:58:20;12.30;99.90
780;DHT22;373;49.342;8.146;2023-11-19T04:00:47;12.60;99.90
780;DHT22;373;49.342;8.146;2023-11-19T04:03:14;12.60;99.90
780;DHT22;373;49.342;8.146;2023-11-19T04:05:41;12.70;99.90
780;DHT22;373;49.342;8.146;2023-11-19T04:08:09;12.70;99.90
780;DHT22;373;49.342;8.146;2023-11-19T04:10:36;12.80;99.90
780;DHT22;373;49.342;8.146;2023-11-19T04:13:05;12.80;99.90
780;DHT22;373;49.342;8.146;2023-11-19T04:15:32;12.80;99.90
780;DHT22;373;49.342;8.146;2023-11-19T04:17:59;12.90;99.90
780;DHT22;373;49.342;8.146;2023-11-19T04:20:26;13.00;99.90
780;DHT22;373;49.342;8.146;2023-11-19T04:22:55;13.00;99.90
780;DHT22;373;49.342;8.146;2023-11-19T04:25:22;13.00;99.90
780;DHT22;373;49.342;8.146;2023-11-19T04:27:51;13.10;99.90
780;DHT22;373;49.342;8.146;2023-11-19T04:30:20;12.90;99.90
780;DHT22;373;49.342;8.146;2023-11-19T04:32:48;12.90;99.90
780;DHT22;373;49.342;8.146;2023-11-19T04:35:16;12.90;99.90
780;DHT22;373;49.342;8.146;2023-11-19T04:37:44;13.00;99.90
780;DHT22;373;49.342;8.146;2023-11-19T04:40:13;13.00;99.90
780;DHT22;373;49.342;8.146;2023-11-19T04:42:40;13.00;99.90
780;DHT22;373;49.342;8.146;2023-11-19T04:45:08;13.00;99.90
780;DHT22;373;49.342;8.146;2023-11-19T04:47:37;13.10;99.90
780;DHT22;373;49.342;8.146;2023-11-19T04:50:05;13.10;99.90
780;DHT22;373;49.342;8.146;2023-11-19T04:52:32;13.10;99.90
780;DHT22;373;49.342;8.146;2023-11-19T04:54:59;13.20;99.90
780;DHT22;373;49.342;8.146;2023-11-19T04:57:26;13.20;99.90
780;DHT22;373;49.342;8.146;2023-11-19T04:59:53;13.20;99.90
780;DHT22;373;49.342;8.146;2023-11-19T05:02:20;13.20;99.90
780;DHT22;373;49.342;8.146;2023-11-19T05:04:52;13.30;99.90
780;DHT22;373;49.342;8.146;2023-11-19T05:07:19;13.50;99.90
780;DHT22;373;49.342;8.146;2023-11-19T05:09:46;13.60;99.90
780;DHT22;373;49.342;8.146;2023-11-19T05:12:13;13.50;99.90
780;DHT22;373;49.342;8.146;2023-11-19T05:14:40;13.40;99.90
780;DHT22;373;49.342;8.146;2023-11-19T05:17:13;13.40;99.90
780;DHT22;373;49.342;8.146;2023-11-19T05:19:40;13.50;99.90
780;DHT22;373;49.342;8.146;2023-11-19T05:22:09;13.60;99.90
780;DHT22;373;49.342;8.146;2023-11-19T05:24:36;13.70;99.90
780;DHT22;373;49.342;8.146;2023-11-19T05:27:03;13.60;99.90
780;DHT22;373;49.342;8.146;2023-11-19T05:29:31;13.50;99.90
780;DHT22;373;49.342;8.146;2023-11-19T05:31:58;13.60;99.90
780;DHT22;373;49.342;8.146;2023-11-19T05:34:25;13.70;99.90
780;DHT22;373;49.342;8.146;2023-11-19T05:36:52;13.70;99.90
780;DHT22;373;49.342;8.146;2023-11-19T05:39:20;13.60;99.90
780;DHT22;373;49.342;8.146;2023-11-19T05:41:47;13.60;99.90
780;DHT22;373;49.342;8.146;2023-11-19T05:44:14;13.60;99.90
780;DHT22;373;49.342;8.146;2023-11-19T05:46:42;13.60;99.90
780;DHT22;373;49.342;8.146;2023-11-19T05:49:10;13.80;99.90
780;DHT22;373;49.342;8.146;2023-11-19T05:51:37;13.70;99.90
780;DHT22;373;49.342;8.146;2023-11-19T05:54:06;13.80;99.90
780;DHT22;373;49.342;8.146;2023-11-19T05:56:37;13.70;99.90
780;DHT22;373;49.342;8.146;2023-11-19T05:59:04;13.80;99.90
780;DHT22;373;49.342;8.146;2023-11-19T06:01:33;13.80;99.90
780;DHT22;373;49.342;8.146;2023-11-19T06:04:00;13.80;99.90
780;DHT22;373;49.342;8.146;2023-11-19T06:06:28;13.90;99.90
780;DHT22;373;49.342;8.146;2023-11-19T06:08:55;14.00;99.90
780;DHT22;373;49.342;8.146;2023-11-19T06:11:22;14.00;99.90
780;DHT22;373;49.342;8.146;2023-11-19T06:13:54;13.90;99.90
780;DHT22;373;49.342;8.146;2023-11-19T06:16:22;14.00;99.90
780;DHT22;373;49.342;8.146;2023-11-19T06:18:49;14.00;99.90
780;DHT22;373;49.342;8.146;2023-11-19T06:21:16;14.00;99.90
780;DHT22;373;49.342;8.146;2023-11-19T06:23:43;13.90;99.90
780;DHT22;373;49.342;8.146;2023-11-19T06:26:10;14.00;99.90
780;DHT22;373;49.342;8.146;2023-11-19T06:28:38;13.90;99.90
780;DHT22;373;49.342;8.146;2023-11-19T06:31:06;13.80;99.90
780;DHT22;373;49.342;8.146;2023-11-19T06:33:33;14.10;99.90
780;DHT22;373;49.342;8.146;2023-11-19T06:36:00;13.90;99.90
780;DHT22;373;49.342;8.146;2023-11-19T06:38:27;13.90;99.90
780;DHT22;373;49.342;8.146;2023-11-19T06:40:54;13.90;99.90
780;DHT22;373;49.342;8.146;2023-11-19T06:43:24;13.90;99.90
780;DHT22;373;49.342;8.146;2023-11-19T06:45:51;14.00;99.90
780;DHT22;373;49.342;8.146;2023-11-19T06:48:20;14.00;99.90
780;DHT22;373;49.342;8.146;2023-11-19T06:50:47;13.90;99.90
780;DHT22;373;49.342;8.146;2023-11-19T06:53:17;14.00;99.90
780;DHT22;373;49.342;8.146;2023-11-19T06:55:44;14.00;99.90
780;DHT22;373;49.342;8.146;2023-11-19T06:58:12;14.00;99.90
780;DHT22;373;49.342;8.146;2023-11-19T07:00:39;14.10;99.90
780;DHT22;373;49.342;8.146;2023-11-19T07:03:07;14.10;99.90
780;DHT22;373;49.342;8.146;2023-11-19T07:05:37;14.20;99.90
780;DHT22;373;49.342;8.146;2023-11-19T07:08:06;14.10;99.90
780;DHT22;373;49.342;8.146;2023-11-19T07:10:33;14.20;99.90
780;DHT22;373;49.342;8.146;2023-11-19T07:13:01;14.30;99.90
780;DHT22;373;49.342;8.146;2023-11-19T07:15:28;14.20;99.90
780;DHT22;373;49.342;8.146;2023-11-19T07:17:58;14.10;99.90
780;DHT22;373;49.342;8.146;2023-11-19T07:20:25;14.20;99.90
780;DHT22;373;49.342;8.146;2023-11-19T07:22:56;14.10;99.90
780;DHT22;373;49.342;8.146;2023-11-19T07:25:23;14.00;99.90
780;DHT22;373;49.342;8.146;2023-11-19T07:27:51;13.90;99.90
780;DHT22;373;49.342;8.146;2023-11-19T07:30:19;14.00;99.90
780;DHT22;373;49.342;8.146;2023-11-19T07:32:46;14.20;99.90
780;DHT22;373;49.342;8.146;2023-11-19T07:35:14;14.10;99.90
780;DHT22;373;49.342;8.146;2023-11-19T07:37:43;14.20;99.90
780;DHT22;373;49.342;8.146;2023-11-19T07:40:13;14.30;99.90
780;DHT22;373;49.342;8.146;2023-11-19T07:42:43;14.20;99.90
780;DHT22;373;49.342;8.146;2023-11-19T07:45:12;14.30;99.90
780;DHT22;373;49.342;8.146;2023-11-19T07:47:39;14.30;99.90
780;DHT22;373;49.342;8.146;2023-11-19T07:50:07;14.20;99.90
780;DHT22;373;49.342;8.146;2023-11-19T07:52:35;14.00;99.90
780;DHT22;373;49.342;8.146;2023-11-19T07:55:02;14.20;99.90
780;DHT22;373;49.342;8.146;2023-11-19T07:57:35;14.20;99.90
780;DHT22;373;49.342;8.146;2023-11-19T08:00:03;14.10;99.90
780;DHT22;373;49.342;8.146;2023-11-19T08:02:38;14.20;99.90
780;DHT22;373;49.342;8.146;2023-11-19T08:05:08;14.60;99.90
780;DHT22;373;49.342;8.146;2023-11-19T08:07:35;15.00;52.90
780;DHT22;373;49.342;8.146;2023-11-19T08:10:02;16.10;1.00
780;DHT22;373;49.342;8.146;2023-11-19T08:12:32;16.30;1.00
780;DHT22;373;49.342;8.146;2023-11-19T08:15:01;15.80;1.00
780;DHT22;373;49.342;8.146;2023-11-19T08:17:28;15.50;1.00
780;DHT22;373;49.342;8.146;2023-11-19T08:19:55;15.50;1.00
780;DHT22;373;49.342;8.146;2023-11-19T08:22:22;16.00;1.00
780;DHT22;373;49.342;8.146;2023-11-19T08:24:49;16.80;1.00
780;DHT22;373;49.342;8.146;2023-11-19T08:27:16;17.40;64.50
780;DHT22;373;49.342;8.146;2023-11-19T08:29:45;18.00;99.90
780;DHT22;373;49.342;8.146;2023-11-19T08:32:12;19.20;1.00
780;DHT22;373;49.342;8.146;2023-11-19T08:34:39;19.40;96.80
780;DHT22;373;49.342;8.146;2023-11-19T08:37:06;20.00;99.90
780;DHT22;373;49.342;8.146;2023-11-19T08:39:33;18.90;25.60
780;DHT22;373;49.342;8.146;2023-11-19T08:42:00;19.20;90.20
780;DHT22;373;49.342;8.146;2023-11-19T08:44:27;19.10;1.00
780;DHT22;373;49.342;8.146;2023-11-19T08:46:56;19.60;1.00
780;DHT22;373;49.342;8.146;2023-11-19T08:49:23;20.20;99.90
780;DHT22;373;49.342;8.146;2023-11-19T08:51:50;20.50;93.10
780;DHT22;373;49.342;8.146;2023-11-19T08:54:17;19.70;99.90
780;DHT22;373;49.342;8.146;2023-11-19T08:56:49;19.70;99.90
780;DHT22;373;49.342;8.146;2023-11-19T08:59:16;19.20;1.00
780;DHT22;373;49.342;8.146;2023-11-19T09:01:44;18.70;99.90
780;DHT22;373;49.342;8.146;2023-11-19T09:04:13;18.80;99.90
780;DHT22;373;49.342;8.146;2023-11-19T09:06:41;19.10;1.00
780;DHT22;373;49.342;8.146;2023-11-19T09:09:09;19.00;1.00
780;DHT22;373;49.342;8.146;2023-11-19T09:11:36;19.20;1.00
780;DHT22;373;49.342;8.146;2023-11-19T09:14:03;19.60;99.90
780;DHT22;373;49.342;8.146;2023-11-19T09:16:31;19.50;99.90
780;DHT22;373;49.342;8.146;2023-11-19T09:18:58;20.10;89.90
780;DHT22;373;49.342;8.146;2023-11-19T09:21:26;20.30;1.00
780;DHT22;373;49.342;8.146;2023-11-19T09:23:55;20.00;1.00
780;DHT22;373;49.342;8.146;2023-11-19T09:26:23;20.60;1.00
780;DHT22;373;49.342;8.146;2023-11-19T09:28:52;21.70;1.00
780;DHT22;373;49.342;8.146;2023-11-19T09:31:19;22.50;1.00
780;DHT22;373;49.342;8.146;2023-11-19T09:33:46;21.50;1.00
780;DHT22;373;49.342;8.146;2023-11-19T09:36:13;21.40;1.00
780;DHT22;373;49.342;8.146;2023-11-19T09:38:43;21.00;1.00
780;DHT22;373;49.342;8.146;2023-11-19T09:41:11;21.00;1.00
780;DHT22;373;49.342;8.146;2023-11-19T09:43:39;20.80;1.00
780;DHT22;373;49.342;8.146;2023-11-19T09:46:09;20.00;1.00
780;DHT22;373;49.342;8.146;2023-11-19T09:48:38;20.80;1.00
780;DHT22;373;49.342;8.146;2023-11-19T09:51:06;21.30;1.00
780;DHT22;373;49.342;8.146;2023-11-19T09:53:34;22.20;99.90
780;DHT22;373;49.342;8.146;2023-11-19T09:56:04;21.80;99.90
780;DHT22;373;49.342;8.146;2023-11-19T09:58:32;22.40;99.90
780;DHT22;373;49.342;8.146;2023-11-19T10:00:59;23.40;99.90
780;DHT22;373;49.342;8.146;2023-11-19T10:03:32;22.80;99.90
780;DHT22;373;49.342;8.146;2023-11-19T10:06:01;23.10;99.90
780;DHT22;373;49.342;8.146;2023-11-19T10:08:28;23.00;99.90
780;DHT22;373;49.342;8.146;2023-11-19T10:10:55;22.90;99.90
780;DHT22;373;49.342;8.146;2023-11-19T10:13:28;23.10;99.90
780;DHT22;373;49.342;8.146;2023-11-19T10:15:56;22.30;99.90
780;DHT22;373;49.342;8.146;2023-11-19T10:18:25;22.70;99.90
780;DHT22;373;49.342;8.146;2023-11-19T10:20:52;22.40;99.90
780;DHT22;373;49.342;8.146;2023-11-19T10:23:20;21.90;99.90
780;DHT22;373;49.342;8.146;2023-11-19T10:25:47;21.70;99.90
780;DHT22;373;49.342;8.146;2023-11-19T10:28:15;22.90;99.90
780;DHT22;373;49.342;8.146;2023-11-19T10:30:44;23.30;99.90
780;DHT22;373;49.342;8.146;2023-11-19T10:33:15;23.50;99.90
780;DHT22;373;49.342;8.146;2023-11-19T10:35:53;23.60;99.90
780;DHT22;373;49.342;8.146;2023-11-19T10:38:22;22.20;99.90
780;DHT22;373;49.342;8.146;2023-11-19T10:40:50;22.80;99.90
780;DHT22;373;49.342;8.146;2023-11-19T10:43:17;23.50;99.90
780;DHT22;373;49.342;8.146;2023-11-19T10:45:46;24.20;99.90
780;DHT22;373;49.342;8.146;2023-11-19T10:48:13;25.10;99.90
780;DHT22;373;49.342;8.146;2023-11-19T10:50:41;25.10;99.90
780;DHT22;373;49.342;8.146;2023-11-19T10:53:11;23.90;99.90
780;DHT22;373;49.342;8.146;2023-11-19T10:55:39;24.50;99.90
780;DHT22;373;49.342;8.146;2023-11-19T10:58:07;24.10;99.90
780;DHT22;373;49.342;8.146;2023-11-19T11:00:39;23.80;99.90
780;DHT22;373;49.342;8.146;2023-11-19T11:03:19;25.10;99.90
780;DHT22;373;49.342;8.146;2023-11-19T11:05:47;25.20;99.90
780;DHT22;373;49.342;8.146;2023-11-19T11:08:15;25.20;99.90
780;DHT22;373;49.342;8.146;2023-11-19T11:10:44;25.00;99.90
780;DHT22;373;49.342;8.146;2023-11-19T11:13:13;24.20;99.90
780;DHT22;373;49.342;8.146;2023-11-19T11:15:40;23.90;99.90
780;DHT22;373;49.342;8.146;2023-11-19T11:18:10;23.60;99.90
780;DHT22;373;49.342;8.146;2023-11-19T11:20:37;23.20;99.90
780;DHT22;373;49.342;8.146;2023-11-19T11:23:25;23.80;99.90
780;DHT22;373;49.342;8.146;2023-11-19T11:26:14;23.50;99.90
780;DHT22;373;49.342;8.146;2023-11-19T11:28:52;23.20;99.90
780;DHT22;373;49.342;8.146;2023-11-19T11:31:31;22.90;99.90
780;DHT22;373;49.342;8.146;2023-11-19T11:34:33;23.40;99.90
780;DHT22;373;49.342;8.146;2023-11-19T11:37:10;24.60;99.90
780;DHT22;373;49.342;8.146;2023-11-19T11:39:40;24.00;99.90
780;DHT22;373;49.342;8.146;2023-11-19T11:42:33;23.90;99.90
780;DHT22;373;49.342;8.146;2023-11-19T11:45:01;23.20;99.90
780;DHT22;373;49.342;8.146;2023-11-19T11:48:08;23.50;99.90
780;DHT22;373;49.342;8.146;2023-11-19T11:50:48;23.10;99.90
780;DHT22;373;49.342;8.146;2023-11-19T11:53:17;23.40;99.90
780;DHT22;373;49.342;8.146;2023-11-19T11:55:57;22.90;99.90
780;DHT22;373;49.342;8.146;2023-11-19T11:58:28;23.30;99.90
780;DHT22;373;49.342;8.146;2023-11-19T12:00:58;22.50;99.90
780;DHT22;373;49.342;8.146;2023-11-19T12:03:28;22.20;99.90
780;DHT22;373;49.342;8.146;2023-11-19T12:05:58;21.10;99.90
780;DHT22;373;49.342;8.146;2023-11-19T12:08:26;20.60;99.90
780;DHT22;373;49.342;8.146;2023-11-19T12:10:55;19.90;99.90
780;DHT22;373;49.342;8.146;2023-11-19T12:13:24;19.90;99.90
780;DHT22;373;49.342;8.146;2023-11-19T12:16:07;19.70;99.90
780;DHT22;373;49.342;8.146;2023-11-19T12:18:35;19.50;99.90
780;DHT22;373;49.342;8.146;2023-11-19T12:21:04;19.10;99.90
780;DHT22;373;49.342;8.146;2023-11-19T12:23:33;18.70;99.90
780;DHT22;373;49.342;8.146;2023-11-19T12:26:00;18.80;99.90
780;DHT22;373;49.342;8.146;2023-11-19T12:28:29;18.90;99.90
780;DHT22;373;49.342;8.146;2023-11-19T12:31:08;18.90;99.90
780;DHT22;373;49.342;8.146;2023-11-19T12:33:36;18.70;99.90
780;DHT22;373;49.342;8.146;2023-11-19T12:36:05;18.80;99.90
780;DHT22;373;49.342;8.146;2023-11-19T12:38:33;18.50;99.90
780;DHT22;373;49.342;8.146;2023-11-19T12:41:04;18.40;99.90
780;DHT22;373;49.342;8.146;2023-11-19T12:43:31;18.30;99.90
780;DHT22;373;49.342;8.146;2023-11-19T12:46:00;18.20;99.90
780;DHT22;373;49.342;8.146;2023-11-19T12:48:27;17.80;1.00
780;DHT22;373;49.342;8.146;2023-11-19T12:50:55;17.50;1.00
780;DHT22;373;49.342;8.146;2023-11-19T12:53:25;17.20;1.00
780;DHT22;373;49.342;8.146;2023-11-19T12:55:53;17.20;1.00
780;DHT22;373;49.342;8.146;2023-11-19T12:58:31;17.40;1.00
780;DHT22;373;49.342;8.146;2023-11-19T13:01:02;17.60;1.00
780;DHT22;373;49.342;8.146;2023-11-19T13:03:30;17.60;1.00
780;DHT22;373;49.342;8.146;2023-11-19T13:06:02;17.60;1.00
780;DHT22;373;49.342;8.146;2023-11-19T13:08:37;17.50;1.00
780;DHT22;373;49.342;8.146;2023-11-19T13:11:05;17.40;1.00
780;DHT22;373;49.342;8.146;2023-11-19T13:13:33;17.30;1.00
780;DHT22;373;49.342;8.146;2023-11-19T13:16:02;17.20;1.00
780;DHT22;373;49.342;8.146;2023-11-19T13:18:31;17.40;1.00
780;DHT22;373;49.342;8.146;2023-11-19T13:20:58;17.60;1.00
780;DHT22;373;49.342;8.146;2023-11-19T13:23:25;17.60;1.00
780;DHT22;373;49.342;8.146;2023-11-19T13:25:54;17.70;1.00
780;DHT22;373;49.342;8.146;2023-11-19T13:28:20;17.90;1.00
780;DHT22;373;49.342;8.146;2023-11-19T13:30:48;17.50;99.90
780;DHT22;373;49.342;8.146;2023-11-19T13:33:15;17.50;1.00
780;DHT22;373;49.342;8.146;2023-11-19T13:35:42;17.20;99.90
780;DHT22;373;49.342;8.146;2023-11-19T13:38:09;17.20;99.90
780;DHT22;373;49.342;8.146;2023-11-19T13:40:36;16.90;99.90
780;DHT22;373;49.342;8.146;2023-11-19T13:43:06;16.80;1.00
780;DHT22;373;49.342;8.146;2023-11-19T13:45:33;16.70;1.00
780;DHT22;373;49.342;8.146;2023-11-19T13:48:00;16.50;1.00
780;DHT22;373;49.342;8.146;2023-11-19T13:50:27;16.40;1.00
780;DHT22;373;49.342;8.146;2023-11-19T13:52:55;16.30;1.00
780;DHT22;373;49.342;8.146;2023-11-19T13:55:22;16.30;1.00
780;DHT22;373;49.342;8.146;2023-11-19T13:57:49;16.20;1.00
780;DHT22;373;49.342;8.146;2023-11-19T14:00:18;16.10;1.00
780;DHT22;373;49.342;8.146;2023-11-19T14:02:48;16.20;1.00
780;DHT22;373;49.342;8.146;2023-11-19T14:05:16;16.10;1.00
780;DHT22;373;49.342;8.146;2023-11-19T14:07:43;16.00;17.10
780;DHT22;373;49.342;8.146;2023-11-19T14:10:17;16.00;63.80
780;DHT22;373;49.342;8.146;2023-11-19T14:12:45;15.90;99.90
780;DHT22;373;49.342;8.146;2023-11-19T14:15:12;15.90;99.90
780;DHT22;373;49.342;8.146;2023-11-19T14:17:41;16.00;47.20
780;DHT22;373;49.342;8.146;2023-11-19T14:20:08;16.10;37.20
780;DHT22;373;49.342;8.146;2023-11-19T14:22:38;16.00;15.40
780;DHT22;373;49.342;8.146;2023-11-19T14:25:06;16.00;26.10
780;DHT22;373;49.342;8.146;2023-11-19T14:27:38;16.10;99.90
780;DHT22;373;49.342;8.146;2023-11-19T14:30:06;16.10;1.00
780;DHT22;373;49.342;8.146;2023-11-19T14:32:35;16.10;63.70
780;DHT22;373;49.342;8.146;2023-11-19T14:35:05;16.10;99.90
780;DHT22;373;49.342;8.146;2023-11-19T14:37:32;16.10;99.90
780;DHT22;373;49.342;8.146;2023-11-19T14:39:59;16.10;1.00
780;DHT22;373;49.342;8.146;2023-11-19T14:42:29;16.00;1.00
780;DHT22;373;49.342;8.146;2023-11-19T14:44:56;15.90;1.00
780;DHT22;373;49.342;8.146;2023-11-19T14:47:23;15.90;1.00
780;DHT22;373;49.342;8.146;2023-11-19T14:49:50;15.80;1.00
780;DHT22;373;49.342;8.146;2023-11-19T14:52:19;15.70;1.00
780;DHT22;373;49.342;8.146;2023-11-19T14:54:46;15.50;1.00
780;DHT22;373;49.342;8.146;2023-11-19T14:57:13;15.50;1.00
780;DHT22;373;49.342;8.146;2023-11-19T14:59:40;15.60;1.00
780;DHT22;373;49.342;8.146;2023-11-19T15:02:08;15.60;1.00
780;DHT22;373;49.342;8.146;2023-11-19T15:04:36;15.70;1.00
780;DHT22;373;49.342;8.146;2023-11-19T15:07:03;15.70;1.00
780;DHT22;373;49.342;8.146;2023-11-19T15:09:32;15.50;1.00
780;DHT22;373;49.342;8.146;2023-11-19T15:11:59;15.40;1.00
780;DHT22;373;49.342;8.146;2023-11-19T15:14:27;15.30;1.00
780;DHT22;373;49.342;8.146;2023-11-19T15:16:56;15.30;1.00
780;DHT22;373;49.342;8.146;2023-11-19T15:19:23;15.40;1.00
780;DHT22;373;49.342;8.146;2023-11-19T15:21:51;15.40;1.00
780;DHT22;373;49.342;8.146;2023-11-19T15:24:20;15.30;1.00
780;DHT22;373;49.342;8.146;2023-11-19T15:26:49;15.20;1.00
780;DHT22;373;49.342;8.146;2023-11-19T15:29:16;15.00;1.00
780;DHT22;373;49.342;8.146;2023-11-19T15:31:43;15.10;39.00
780;DHT22;373;49.342;8.146;2023-11-19T15:34:11;15.10;71.60
780;DHT22;373;49.342;8.146;2023-11-19T15:36:42;15.00;88.00
780;DHT22;373;49.342;8.146;2023-11-19T15:39:12;14.80;99.90
780;DHT22;373;49.342;8.146;2023-11-19T15:41:40;14.90;99.90
780;DHT22;373;49.342;8.146;2023-11-19T15:44:09;14.90;99.90
780;DHT22;373;49.342;8.146;2023-11-19T15:46:39;14.90;99.90
780;DHT22;373;49.342;8.146;2023-11-19T15:49:06;14.90;99.90
780;DHT22;373;49.342;8.146;2023-11-19T15:51:33;14.90;99.90
780;DHT22;373;49.342;8.146;2023-11-19T15:54:01;14.80;99.90
780;DHT22;373;49.342;8.146;2023-11-19T15:56:28;14.70;99.90
780;DHT22;373;49.342;8.146;2023-11-19T15:58:56;14.80;1.00
780;DHT22;373;49.342;8.146;2023-11-19T16:01:25;14.90;1.00
780;DHT22;373;49.342;8.146;2023-11-19T16:03:53;14.60;1.00
780;DHT22;373;49.342;8.146;2023-11-19T16:06:21;14.60;1.00
780;DHT22;373;49.342;8.146;2023-11-19T16:08:48;14.70;1.00
780;DHT22;373;49.342;8.146;2023-11-19T16:11:16;14.70;1.00
780;DHT22;373;49.342;8.146;2023-11-19T16:13:43;14.60;16.20
780;DHT22;373;49.342;8.146;2023-11-19T16:16:11;14.70;1.00
780;DHT22;373;49.342;8.146;2023-11-19T16:18:40;14.60;63.20
780;DHT22;373;49.342;8.146;2023-11-19T16:21:07;14.60;99.90
780;DHT22;373;49.342;8.146;2023-11-19T16:23:34;14.70;99.90
780;DHT22;373;49.342;8.146;2023-11-19T16:26:02;14.70;93.00
780;DHT22;373;49.342;8.146;2023-11-19T16:28:29;14.60;92.60
780;DHT22;373;49.342;8.146;2023-11-19T16:30:56;14.50;99.90
780;DHT22;373;49.342;8.146;2023-11-19T16:33:23;14.50;1.00
780;DHT22;373;49.342;8.146;2023-11-19T16:35:57;14.50;1.00
780;DHT22;373;49.342;8.146;2023-11-19T16:38:27;14.60;99.90
780;DHT22;373;49.342;8.146;2023-11-19T16:40:54;14.60;1.00
780;DHT22;373;49.342;8.146;2023-11-19T16:43:21;14.50;1.00
780;DHT22;373;49.342;8.146;2023-11-19T16:45:53;14.60;99.90
780;DHT22;373;49.342;8.146;2023-11-19T16:48:20;14.60;1.00
780;DHT22;373;49.342;8.146;2023-11-19T16:50:48;14.60;1.00